sensor_id;sensor_type;location;lat;lon;timestamp;temperature;humidity
22194;DHT22;11262;50.308;9.270;2022-07-29T00:01:07;19.30;84.60
22194;DHT22;11262;50.308;9.270;2022-07-29T00:03:33;19.30;85.00
22194;DHT22;11262;50.308;9.270;2022-07-29T00:05:58;19.40;86.10
22194;DHT22;11262;50.308;9.270;2022-07-29T00:08:24;19.40;85.20
22194;DHT22;11262;50.308;9.270;2022-07-29T00:10:50;19.30;85.30
22194;DHT22;11262;50.308;9.270;2022-07-29T00:13:15;19.20;85.20
22194;DHT22;11262;50.308;9.270;2022-07-29T00:15:41;19.30;85.20
22194;DHT22;11262;50.308;9.270;2022-07-29T00:18:06;19.30;85.50
22194;DHT22;11262;50.308;9.270;2022-07-29T00:20:32;19.20;85.00
22194;DHT22;11262;50.308;9.270;2022-07-29T00:22:58;19.20;84.70
22194;DHT22;11262;50.308;9.270;2022-07-29T00:25:23;19.20;85.00
22194;DHT22;11262;50.308;9.270;2022-07-29T00:27:49;19.30;84.70
22194;DHT22;11262;50.308;9.270;2022-07-29T00:30:15;19.30;84.10
22194;DHT22;11262;50.308;9.270;2022-07-29T00:32:40;19.20;84.60
22194;DHT22;11262;50.308;9.270;2022-07-29T00:35:06;19.30;84.40
22194;DHT22;11262;50.308;9.270;2022-07-29T00:37:51;19.30;85.30
22194;DHT22;11262;50.308;9.270;2022-07-29T00:40:16;19.30;84.80
22194;DHT22;11262;50.308;9.270;2022-07-29T00:42:47;19.30;84.90
22194;DHT22;11262;50.308;9.270;2022-07-29T00:45:13;19.30;84.30
22194;DHT22;11262;50.308;9.270;2022-07-29T00:47:39;19.30;85.10
22194;DHT22;11262;50.308;9.270;2022-07-29T00:50:06;19.30;84.50
22194;DHT22;11262;50.308;9.270;2022-07-29T00:52:33;19.20;84.60
22194;DHT22;11262;50.308;9.270;2022-07-29T00:55:02;19.20;84.90
22194;DHT22;11262;50.308;9.270;2022-07-29T00:57:27;19.20;84.60
22194;DHT22;11262;50.308;9.270;2022-07-29T00:59:53;19.20;84.40
22194;DHT22;11262;50.308;9.270;2022-07-29T01:02:18;19.20;84.60
22194;DHT22;11262;50.308;9.270;2022-07-29T01:04:44;19.30;85.30
22194;DHT22;11262;50.308;9.270;2022-07-29T01:07:10;19.30;84.70
22194;DHT22;11262;50.308;9.270;2022-07-29T01:09:37;19.20;85.00
22194;DHT22;11262;50.308;9.270;2022-07-29T01:12:04;19.20;84.60
22194;DHT22;11262;50.308;9.270;2022-07-29T01:14:30;19.20;85.00
22194;DHT22;11262;50.308;9.270;2022-07-29T01:17:02;19.20;84.30
22194;DHT22;11262;50.308;9.270;2022-07-29T01:19:47;19.30;84.60
22194;DHT22;11262;50.308;9.270;2022-07-29T01:31:08;19.30;84.40
22194;DHT22;11262;50.308;9.270;2022-07-29T01:33:41;19.30;84.10
22194;DHT22;11262;50.308;9.270;2022-07-29T01:39:08;19.30;84.70
22194;DHT22;11262;50.308;9.270;2022-07-29T01:41:37;19.30;84.40
22194;DHT22;11262;50.308;9.270;2022-07-29T01:44:17;19.30;85.30
22194;DHT22;11262;50.308;9.270;2022-07-29T01:46:51;19.30;84.40
22194;DHT22;11262;50.308;9.270;2022-07-29T01:49:21;19.30;83.60
22194;DHT22;11262;50.308;9.270;2022-07-29T01:54:43;19.10;84.30
22194;DHT22;11262;50.308;9.270;2022-07-29T01:57:14;19.10;84.90
22194;DHT22;11262;50.308;9.270;2022-07-29T01:59:41;19.00;84.80
22194;DHT22;11262;50.308;9.270;2022-07-29T02:02:08;19.00;85.30
22194;DHT22;11262;50.308;9.270;2022-07-29T02:04:36;18.90;86.00
22194;DHT22;11262;50.308;9.270;2022-07-29T02:07:04;18.80;86.20
22194;DHT22;11262;50.308;9.270;2022-07-29T02:09:33;18.70;86.40
22194;DHT22;11262;50.308;9.270;2022-07-29T02:12:00;18.80;85.90
22194;DHT22;11262;50.308;9.270;2022-07-29T02:14:32;18.80;86.50
22194;DHT22;11262;50.308;9.270;2022-07-29T02:16:59;18.90;86.50
22194;DHT22;11262;50.308;9.270;2022-07-29T02:19:27;18.90;87.00
22194;DHT22;11262;50.308;9.270;2022-07-29T02:21:56;18.90;86.80
22194;DHT22;11262;50.308;9.270;2022-07-29T02:24:23;18.90;86.80
22194;DHT22;11262;50.308;9.270;2022-07-29T02:26:50;19.00;85.80
22194;DHT22;11262;50.308;9.270;2022-07-29T02:29:17;19.10;86.30
22194;DHT22;11262;50.308;9.270;2022-07-29T02:31:45;19.10;86.20
22194;DHT22;11262;50.308;9.270;2022-07-29T02:34:12;19.10;85.80
22194;DHT22;11262;50.308;9.270;2022-07-29T02:36:39;19.10;85.40
22194;DHT22;11262;50.308;9.270;2022-07-29T02:39:08;19.00;85.90
22194;DHT22;11262;50.308;9.270;2022-07-29T02:41:41;19.00;87.00
22194;DHT22;11262;50.308;9.270;2022-07-29T02:44:12;19.00;88.60
22194;DHT22;11262;50.308;9.270;2022-07-29T02:46:49;19.00;86.90
22194;DHT22;11262;50.308;9.270;2022-07-29T02:52:21;19.00;88.50
22194;DHT22;11262;50.308;9.270;2022-07-29T02:55:01;19.00;88.60
22194;DHT22;11262;50.308;9.270;2022-07-29T02:57:34;19.00;88.90
22194;DHT22;11262;50.308;9.270;2022-07-29T03:00:06;19.00;89.50
22194;DHT22;11262;50.308;9.270;2022-07-29T03:02:37;19.00;90.00
22194;DHT22;11262;50.308;9.270;2022-07-29T03:05:05;19.00;90.00
22194;DHT22;11262;50.308;9.270;2022-07-29T03:07:33;18.90;90.00
22194;DHT22;11262;50.308;9.270;2022-07-29T03:10:00;18.90;90.10
22194;DHT22;11262;50.308;9.270;2022-07-29T03:12:26;18.90;90.00
22194;DHT22;11262;50.308;9.270;2022-07-29T03:14:53;18.90;90.20
22194;DHT22;11262;50.308;9.270;2022-07-29T03:17:20;18.90;90.30
22194;DHT22;11262;50.308;9.270;2022-07-29T03:19:46;18.90;90.20
22194;DHT22;11262;50.308;9.270;2022-07-29T03:22:13;18.90;90.50
22194;DHT22;11262;50.308;9.270;2022-07-29T03:24:39;18.80;90.80
22194;DHT22;11262;50.308;9.270;2022-07-29T03:27:05;18.80;90.80
22194;DHT22;11262;50.308;9.270;2022-07-29T03:29:31;18.80;90.80
22194;DHT22;11262;50.308;9.270;2022-07-29T03:31:56;18.80;91.30
22194;DHT22;11262;50.308;9.270;2022-07-29T03:34:22;18.80;90.80
22194;DHT22;11262;50.308;9.270;2022-07-29T03:36:48;18.70;90.80
22194;DHT22;11262;50.308;9.270;2022-07-29T03:39:18;18.70;90.60
22194;DHT22;11262;50.308;9.270;2022-07-29T03:41:47;18.60;91.00
22194;DHT22;11262;50.308;9.270;2022-07-29T03:44:15;18.60;90.90
22194;DHT22;11262;50.308;9.270;2022-07-29T03:46:42;18.60;91.10
22194;DHT22;11262;50.308;9.270;2022-07-29T03:49:09;18.50;90.70
22194;DHT22;11262;50.308;9.270;2022-07-29T03:51:35;18.50;90.70
22194;DHT22;11262;50.308;9.270;2022-07-29T03:54:02;18.50;91.10
22194;DHT22;11262;50.308;9.270;2022-07-29T03:56:29;18.40;90.70
22194;DHT22;11262;50.308;9.270;2022-07-29T03:58:55;18.40;90.70
22194;DHT22;11262;50.308;9.270;2022-07-29T04:01:22;18.40;90.80
22194;DHT22;11262;50.308;9.270;2022-07-29T04:03:49;18.40;90.60
22194;DHT22;11262;50.308;9.270;2022-07-29T04:06:15;18.40;90.60
22194;DHT22;11262;50.308;9.270;2022-07-29T04:08:40;18.30;90.80
22194;DHT22;11262;50.308;9.270;2022-07-29T04:11:06;18.30;91.10
22194;DHT22;11262;50.308;9.270;2022-07-29T04:13:32;18.30;91.20
22194;DHT22;11262;50.308;9.270;2022-07-29T04:15:58;18.30;91.10
22194;DHT22;11262;50.308;9.270;2022-07-29T04:18:24;18.30;91.10
22194;DHT22;11262;50.308;9.270;2022-07-29T04:20:50;18.30;91.30
22194;DHT22;11262;50.308;9.270;2022-07-29T04:23:16;18.30;91.20
22194;DHT22;11262;50.308;9.270;2022-07-29T04:25:42;18.30;91.40
22194;DHT22;11262;50.308;9.270;2022-07-29T04:28:09;18.30;91.20
22194;DHT22;11262;50.308;9.270;2022-07-29T04:30:36;18.40;91.20
22194;DHT22;11262;50.308;9.270;2022-07-29T04:33:03;18.40;91.20
22194;DHT22;11262;50.308;9.270;2022-07-29T04:35:30;18.50;91.20
22194;DHT22;11262;50.308;9.270;2022-07-29T04:37:56;18.50;91.30
22194;DHT22;11262;50.308;9.270;2022-07-29T04:40:22;18.50;91.40
22194;DHT22;11262;50.308;9.270;2022-07-29T04:42:48;18.50;91.40
22194;DHT22;11262;50.308;9.270;2022-07-29T04:45:14;18.60;91.40
22194;DHT22;11262;50.308;9.270;2022-07-29T04:47:39;18.60;91.10
22194;DHT22;11262;50.308;9.270;2022-07-29T04:50:06;18.70;91.10
22194;DHT22;11262;50.308;9.270;2022-07-29T04:52:32;18.70;91.20
22194;DHT22;11262;50.308;9.270;2022-07-29T04:54:59;18.80;91.20
22194;DHT22;11262;50.308;9.270;2022-07-29T04:57:24;18.80;91.30
22194;DHT22;11262;50.308;9.270;2022-07-29T04:59:50;18.80;91.10
22194;DHT22;11262;50.308;9.270;2022-07-29T05:02:15;18.90;91.40
22194;DHT22;11262;50.308;9.270;2022-07-29T05:04:41;18.90;91.50
22194;DHT22;11262;50.308;9.270;2022-07-29T05:07:07;18.80;92.10
22194;DHT22;11262;50.308;9.270;2022-07-29T05:09:32;18.80;92.20
22194;DHT22;11262;50.308;9.270;2022-07-29T05:11:58;18.80;92.50
22194;DHT22;11262;50.308;9.270;2022-07-29T05:14:23;18.80;92.70
22194;DHT22;11262;50.308;9.270;2022-07-29T05:16:49;18.80;93.30
22194;DHT22;11262;50.308;9.270;2022-07-29T05:19:16;18.80;93.20
22194;DHT22;11262;50.308;9.270;2022-07-29T05:21:42;18.70;92.60
22194;DHT22;11262;50.308;9.270;2022-07-29T05:24:09;18.60;95.60
22194;DHT22;11262;50.308;9.270;2022-07-29T05:26:35;18.60;97.80
22194;DHT22;11262;50.308;9.270;2022-07-29T05:29:01;18.50;99.90
22194;DHT22;11262;50.308;9.270;2022-07-29T05:31:26;18.40;99.90
22194;DHT22;11262;50.308;9.270;2022-07-29T05:33:52;18.10;99.90
22194;DHT22;11262;50.308;9.270;2022-07-29T05:36:18;18.00;99.90
22194;DHT22;11262;50.308;9.270;2022-07-29T05:38:43;17.90;99.90
22194;DHT22;11262;50.308;9.270;2022-07-29T05:41:09;17.80;99.90
22194;DHT22;11262;50.308;9.270;2022-07-29T05:43:35;17.70;99.90
22194;DHT22;11262;50.308;9.270;2022-07-29T05:46:00;17.60;99.90
22194;DHT22;11262;50.308;9.270;2022-07-29T05:48:26;17.40;99.90
22194;DHT22;11262;50.308;9.270;2022-07-29T05:50:51;17.20;99.90
22194;DHT22;11262;50.308;9.270;2022-07-29T05:53:17;17.10;99.90
22194;DHT22;11262;50.308;9.270;2022-07-29T05:55:43;17.10;99.90
22194;DHT22;11262;50.308;9.270;2022-07-29T05:58:08;17.10;99.90
22194;DHT22;11262;50.308;9.270;2022-07-29T06:00:34;17.10;99.90
22194;DHT22;11262;50.308;9.270;2022-07-29T06:03:00;17.10;99.90
22194;DHT22;11262;50.308;9.270;2022-07-29T06:05:25;17.10;99.90
22194;DHT22;11262;50.308;9.270;2022-07-29T06:07:51;17.10;99.90
22194;DHT22;11262;50.308;9.270;2022-07-29T06:10:16;17.10;99.90
22194;DHT22;11262;50.308;9.270;2022-07-29T06:12:42;17.10;99.90
22194;DHT22;11262;50.308;9.270;2022-07-29T06:15:08;17.20;99.90
22194;DHT22;11262;50.308;9.270;2022-07-29T06:17:34;17.20;99.90
22194;DHT22;11262;50.308;9.270;2022-07-29T06:20:00;17.30;99.90
22194;DHT22;11262;50.308;9.270;2022-07-29T06:22:25;17.30;99.90
22194;DHT22;11262;50.308;9.270;2022-07-29T06:24:51;17.40;99.90
22194;DHT22;11262;50.308;9.270;2022-07-29T06:27:16;17.50;99.90
22194;DHT22;11262;50.308;9.270;2022-07-29T06:29:42;17.50;99.90
22194;DHT22;11262;50.308;9.270;2022-07-29T06:32:08;17.60;99.90
22194;DHT22;11262;50.308;9.270;2022-07-29T06:34:35;17.60;99.90
22194;DHT22;11262;50.308;9.270;2022-07-29T06:37:05;17.60;99.90
22194;DHT22;11262;50.308;9.270;2022-07-29T06:39:31;17.70;99.90
22194;DHT22;11262;50.308;9.270;2022-07-29T06:41:56;17.70;99.90
22194;DHT22;11262;50.308;9.270;2022-07-29T06:44:22;17.70;99.90
22194;DHT22;11262;50.308;9.270;2022-07-29T06:46:47;17.70;99.90
22194;DHT22;11262;50.308;9.270;2022-07-29T06:49:15;17.70;99.90
22194;DHT22;11262;50.308;9.270;2022-07-29T06:51:41;17.80;99.90
22194;DHT22;11262;50.308;9.270;2022-07-29T06:54:07;17.70;99.90
22194;DHT22;11262;50.308;9.270;2022-07-29T06:56:34;17.80;99.90
22194;DHT22;11262;50.308;9.270;2022-07-29T06:59:02;17.80;99.90
22194;DHT22;11262;50.308;9.270;2022-07-29T07:01:27;17.90;99.90
22194;DHT22;11262;50.308;9.270;2022-07-29T07:03:53;18.00;99.90
22194;DHT22;11262;50.308;9.270;2022-07-29T07:06:19;18.20;99.90
22194;DHT22;11262;50.308;9.270;2022-07-29T07:08:44;18.30;99.90
22194;DHT22;11262;50.308;9.270;2022-07-29T07:11:10;18.30;99.90
22194;DHT22;11262;50.308;9.270;2022-07-29T07:13:35;18.40;99.90
22194;DHT22;11262;50.308;9.270;2022-07-29T07:16:01;18.60;99.90
22194;DHT22;11262;50.308;9.270;2022-07-29T07:18:27;18.70;99.90
22194;DHT22;11262;50.308;9.270;2022-07-29T07:20:53;18.80;99.90
22194;DHT22;11262;50.308;9.270;2022-07-29T07:23:18;18.80;99.90
22194;DHT22;11262;50.308;9.270;2022-07-29T07:25:44;18.90;99.90
22194;DHT22;11262;50.308;9.270;2022-07-29T07:28:10;19.00;99.90
22194;DHT22;11262;50.308;9.270;2022-07-29T07:30:36;19.00;99.90
22194;DHT22;11262;50.308;9.270;2022-07-29T07:33:02;19.00;99.90
22194;DHT22;11262;50.308;9.270;2022-07-29T07:35:28;19.10;99.90
22194;DHT22;11262;50.308;9.270;2022-07-29T07:37:55;19.20;99.90
22194;DHT22;11262;50.308;9.270;2022-07-29T07:40:21;19.30;99.90
22194;DHT22;11262;50.308;9.270;2022-07-29T07:42:46;19.40;99.90
22194;DHT22;11262;50.308;9.270;2022-07-29T07:45:12;19.50;99.90
22194;DHT22;11262;50.308;9.270;2022-07-29T07:47:38;19.80;99.90
22194;DHT22;11262;50.308;9.270;2022-07-29T07:50:06;20.00;99.90
22194;DHT22;11262;50.308;9.270;2022-07-29T07:52:32;20.20;99.90
22194;DHT22;11262;50.308;9.270;2022-07-29T07:54:57;20.40;99.90
22194;DHT22;11262;50.308;9.270;2022-07-29T07:57:23;20.50;99.90
22194;DHT22;11262;50.308;9.270;2022-07-29T07:59:49;20.70;99.90
22194;DHT22;11262;50.308;9.270;2022-07-29T08:02:14;20.80;99.90
22194;DHT22;11262;50.308;9.270;2022-07-29T08:04:40;21.00;99.90
22194;DHT22;11262;50.308;9.270;2022-07-29T08:07:06;21.10;99.90
22194;DHT22;11262;50.308;9.270;2022-07-29T08:09:32;21.30;99.90
22194;DHT22;11262;50.308;9.270;2022-07-29T08:11:58;21.40;99.90
22194;DHT22;11262;50.308;9.270;2022-07-29T08:14:24;21.60;99.90
22194;DHT22;11262;50.308;9.270;2022-07-29T08:16:50;21.70;99.90
22194;DHT22;11262;50.308;9.270;2022-07-29T08:19:16;21.60;99.90
22194;DHT22;11262;50.308;9.270;2022-07-29T08:21:42;21.60;99.90
22194;DHT22;11262;50.308;9.270;2022-07-29T08:24:07;21.70;99.90
22194;DHT22;11262;50.308;9.270;2022-07-29T08:26:51;21.70;99.90
22194;DHT22;11262;50.308;9.270;2022-07-29T08:29:17;21.80;99.90
22194;DHT22;11262;50.308;9.270;2022-07-29T08:31:43;21.90;99.90
22194;DHT22;11262;50.308;9.270;2022-07-29T08:34:08;22.10;99.90
22194;DHT22;11262;50.308;9.270;2022-07-29T08:36:34;22.40;99.90
22194;DHT22;11262;50.308;9.270;2022-07-29T08:39:01;22.40;99.90
22194;DHT22;11262;50.308;9.270;2022-07-29T08:41:27;22.60;99.90
22194;DHT22;11262;50.308;9.270;2022-07-29T08:43:52;22.80;99.90
22194;DHT22;11262;50.308;9.270;2022-07-29T08:46:19;22.90;99.90
22194;DHT22;11262;50.308;9.270;2022-07-29T08:48:46;23.00;99.90
22194;DHT22;11262;50.308;9.270;2022-07-29T08:51:14;23.10;99.90
22194;DHT22;11262;50.308;9.270;2022-07-29T08:53:42;23.30;99.90
22194;DHT22;11262;50.308;9.270;2022-07-29T08:56:11;23.40;99.90
22194;DHT22;11262;50.308;9.270;2022-07-29T08:58:39;23.70;99.90
22194;DHT22;11262;50.308;9.270;2022-07-29T09:01:05;23.80;99.90
22194;DHT22;11262;50.308;9.270;2022-07-29T09:03:33;24.00;99.90
22194;DHT22;11262;50.308;9.270;2022-07-29T09:06:00;24.10;99.90
22194;DHT22;11262;50.308;9.270;2022-07-29T09:08:27;24.30;99.90
22194;DHT22;11262;50.308;9.270;2022-07-29T09:10:54;24.30;99.90
22194;DHT22;11262;50.308;9.270;2022-07-29T09:13:21;24.40;99.90
22194;DHT22;11262;50.308;9.270;2022-07-29T09:15:47;24.50;99.90
22194;DHT22;11262;50.308;9.270;2022-07-29T09:20:58;24.70;99.90
22194;DHT22;11262;50.308;9.270;2022-07-29T09:24:09;24.90;99.90
22194;DHT22;11262;50.308;9.270;2022-07-29T09:26:45;25.20;99.90
22194;DHT22;11262;50.308;9.270;2022-07-29T09:29:17;25.10;99.90
22194;DHT22;11262;50.308;9.270;2022-07-29T09:31:50;25.20;99.90
22194;DHT22;11262;50.308;9.270;2022-07-29T09:34:27;25.40;99.90
22194;DHT22;11262;50.308;9.270;2022-07-29T09:36:54;25.70;99.90
22194;DHT22;11262;50.308;9.270;2022-07-29T09:39:46;26.00;99.90
22194;DHT22;11262;50.308;9.270;2022-07-29T09:42:12;26.10;99.70
22194;DHT22;11262;50.308;9.270;2022-07-29T09:47:11;26.40;99.40
22194;DHT22;11262;50.308;9.270;2022-07-29T09:49:58;26.40;98.20
22194;DHT22;11262;50.308;9.270;2022-07-29T09:52:26;26.50;97.90
22194;DHT22;11262;50.308;9.270;2022-07-29T09:54:52;26.50;99.10
22194;DHT22;11262;50.308;9.270;2022-07-29T10:00:07;26.80;98.10
22194;DHT22;11262;50.308;9.270;2022-07-29T10:02:35;26.80;98.00
22194;DHT22;11262;50.308;9.270;2022-07-29T10:05:03;26.70;96.70
22194;DHT22;11262;50.308;9.270;2022-07-29T10:07:46;26.30;96.60
22194;DHT22;11262;50.308;9.270;2022-07-29T10:13:02;26.30;95.30
22194;DHT22;11262;50.308;9.270;2022-07-29T10:15:30;26.60;96.00
22194;DHT22;11262;50.308;9.270;2022-07-29T10:17:58;27.00;96.80
22194;DHT22;11262;50.308;9.270;2022-07-29T10:20:25;27.30;96.10
22194;DHT22;11262;50.308;9.270;2022-07-29T10:22:52;27.20;94.20
22194;DHT22;11262;50.308;9.270;2022-07-29T10:25:18;27.10;94.40
22194;DHT22;11262;50.308;9.270;2022-07-29T10:27:45;27.10;94.70
22194;DHT22;11262;50.308;9.270;2022-07-29T10:30:13;27.00;94.20
22194;DHT22;11262;50.308;9.270;2022-07-29T10:35:53;27.20;94.70
22194;DHT22;11262;50.308;9.270;2022-07-29T10:44:00;28.20;93.20
22194;DHT22;11262;50.308;9.270;2022-07-29T10:46:27;28.20;91.70
22194;DHT22;11262;50.308;9.270;2022-07-29T11:00:25;29.00;86.40
22194;DHT22;11262;50.308;9.270;2022-07-29T11:05:06;29.00;83.20
22194;DHT22;11262;50.308;9.270;2022-07-29T11:07:34;29.00;84.80
22194;DHT22;11262;50.308;9.270;2022-07-29T11:15:11;29.10;83.10
22194;DHT22;11262;50.308;9.270;2022-07-29T11:23:30;29.30;82.70
22194;DHT22;11262;50.308;9.270;2022-07-29T11:26:16;29.40;82.70
22194;DHT22;11262;50.308;9.270;2022-07-29T11:29:13;29.70;84.30
22194;DHT22;11262;50.308;9.270;2022-07-29T11:31:44;30.10;83.00
22194;DHT22;11262;50.308;9.270;2022-07-29T11:39:42;30.80;80.30
22194;DHT22;11262;50.308;9.270;2022-07-29T11:45:06;31.30;78.80
22194;DHT22;11262;50.308;9.270;2022-07-29T11:47:37;31.50;79.00
22194;DHT22;11262;50.308;9.270;2022-07-29T11:50:06;31.80;76.80
22194;DHT22;11262;50.308;9.270;2022-07-29T11:52:34;31.40;74.90
22194;DHT22;11262;50.308;9.270;2022-07-29T11:55:05;31.60;75.00
22194;DHT22;11262;50.308;9.270;2022-07-29T11:57:31;31.80;73.70
22194;DHT22;11262;50.308;9.270;2022-07-29T11:59:58;31.60;71.70
22194;DHT22;11262;50.308;9.270;2022-07-29T12:02:24;31.20;72.50
22194;DHT22;11262;50.308;9.270;2022-07-29T12:04:54;31.50;74.10
22194;DHT22;11262;50.308;9.270;2022-07-29T12:07:33;31.70;73.50
22194;DHT22;11262;50.308;9.270;2022-07-29T12:09:59;31.90;72.30
22194;DHT22;11262;50.308;9.270;2022-07-29T12:12:25;31.60;71.30
22194;DHT22;11262;50.308;9.270;2022-07-29T12:14:51;31.90;71.20
22194;DHT22;11262;50.308;9.270;2022-07-29T12:17:33;32.30;72.00
22194;DHT22;11262;50.308;9.270;2022-07-29T12:20:01;32.30;68.70
22194;DHT22;11262;50.308;9.270;2022-07-29T12:22:39;32.20;69.50
22194;DHT22;11262;50.308;9.270;2022-07-29T12:25:14;32.40;69.20
22194;DHT22;11262;50.308;9.270;2022-07-29T12:27:41;32.40;66.70
22194;DHT22;11262;50.308;9.270;2022-07-29T12:30:11;32.30;66.70
22194;DHT22;11262;50.308;9.270;2022-07-29T12:32:40;32.60;66.40
22194;DHT22;11262;50.308;9.270;2022-07-29T12:35:18;32.40;66.80
22194;DHT22;11262;50.308;9.270;2022-07-29T12:37:47;32.10;66.60
22194;DHT22;11262;50.308;9.270;2022-07-29T12:40:16;31.90;67.30
22194;DHT22;11262;50.308;9.270;2022-07-29T12:45:31;32.40;66.00
22194;DHT22;11262;50.308;9.270;2022-07-29T12:47:56;32.70;65.80
22194;DHT22;11262;50.308;9.270;2022-07-29T12:50:22;32.70;65.60
22194;DHT22;11262;50.308;9.270;2022-07-29T12:52:48;32.80;66.10
22194;DHT22;11262;50.308;9.270;2022-07-29T12:55:14;32.80;64.50
22194;DHT22;11262;50.308;9.270;2022-07-29T12:57:47;32.90;63.70
22194;DHT22;11262;50.308;9.270;2022-07-29T13:00:15;33.10;63.60
22194;DHT22;11262;50.308;9.270;2022-07-29T13:02:42;33.00;62.10
22194;DHT22;11262;50.308;9.270;2022-07-29T13:05:10;33.30;62.50
22194;DHT22;11262;50.308;9.270;2022-07-29T13:07:37;33.50;62.80
22194;DHT22;11262;50.308;9.270;2022-07-29T13:10:14;33.20;63.00
22194;DHT22;11262;50.308;9.270;2022-07-29T13:13:03;33.10;62.70
22194;DHT22;11262;50.308;9.270;2022-07-29T13:15:30;33.20;62.50
22194;DHT22;11262;50.308;9.270;2022-07-29T13:17:56;33.20;61.10
22194;DHT22;11262;50.308;9.270;2022-07-29T13:20:24;33.30;61.00
22194;DHT22;11262;50.308;9.270;2022-07-29T13:22:50;33.50;62.30
22194;DHT22;11262;50.308;9.270;2022-07-29T13:25:33;33.10;61.20
22194;DHT22;11262;50.308;9.270;2022-07-29T13:27:59;32.70;61.30
22194;DHT22;11262;50.308;9.270;2022-07-29T13:30:25;32.50;62.20
22194;DHT22;11262;50.308;9.270;2022-07-29T13:32:52;32.20;62.40
22194;DHT22;11262;50.308;9.270;2022-07-29T13:35:18;31.80;64.80
22194;DHT22;11262;50.308;9.270;2022-07-29T13:37:44;31.50;65.00
22194;DHT22;11262;50.308;9.270;2022-07-29T13:40:11;31.30;65.10
22194;DHT22;11262;50.308;9.270;2022-07-29T13:42:37;31.30;65.10
22194;DHT22;11262;50.308;9.270;2022-07-29T13:45:03;31.20;64.90
22194;DHT22;11262;50.308;9.270;2022-07-29T13:47:30;31.40;64.80
22194;DHT22;11262;50.308;9.270;2022-07-29T13:49:55;31.90;64.80
22194;DHT22;11262;50.308;9.270;2022-07-29T13:52:21;32.30;63.40
22194;DHT22;11262;50.308;9.270;2022-07-29T13:54:47;32.20;61.70
22194;DHT22;11262;50.308;9.270;2022-07-29T13:57:13;31.90;63.60
22194;DHT22;11262;50.308;9.270;2022-07-29T13:59:40;31.80;62.00
22194;DHT22;11262;50.308;9.270;2022-07-29T14:02:07;31.10;63.00
22194;DHT22;11262;50.308;9.270;2022-07-29T14:04:33;30.90;64.40
22194;DHT22;11262;50.308;9.270;2022-07-29T14:06:59;30.70;63.80
22194;DHT22;11262;50.308;9.270;2022-07-29T14:09:24;30.50;65.70
22194;DHT22;11262;50.308;9.270;2022-07-29T14:11:50;30.60;65.90
22194;DHT22;11262;50.308;9.270;2022-07-29T14:14:17;30.80;65.80
22194;DHT22;11262;50.308;9.270;2022-07-29T14:16:42;31.10;65.50
22194;DHT22;11262;50.308;9.270;2022-07-29T14:19:08;31.50;65.60
22194;DHT22;11262;50.308;9.270;2022-07-29T14:21:33;32.20;63.60
22194;DHT22;11262;50.308;9.270;2022-07-29T14:24:00;32.50;61.20
22194;DHT22;11262;50.308;9.270;2022-07-29T14:26:25;32.80;60.90
22194;DHT22;11262;50.308;9.270;2022-07-29T14:28:51;33.00;60.40
22194;DHT22;11262;50.308;9.270;2022-07-29T14:31:16;33.10;59.40
22194;DHT22;11262;50.308;9.270;2022-07-29T14:33:42;32.90;59.30
22194;DHT22;11262;50.308;9.270;2022-07-29T14:36:08;32.70;59.60
22194;DHT22;11262;50.308;9.270;2022-07-29T14:38:35;32.00;59.00
22194;DHT22;11262;50.308;9.270;2022-07-29T14:41:00;31.70;60.20
22194;DHT22;11262;50.308;9.270;2022-07-29T14:43:26;31.30;60.60
22194;DHT22;11262;50.308;9.270;2022-07-29T14:45:52;31.00;60.80
22194;DHT22;11262;50.308;9.270;2022-07-29T14:48:17;31.00;60.60
22194;DHT22;11262;50.308;9.270;2022-07-29T14:50:43;30.90;61.60
22194;DHT22;11262;50.308;9.270;2022-07-29T14:53:08;31.00;62.10
22194;DHT22;11262;50.308;9.270;2022-07-29T14:55:34;31.10;62.00
22194;DHT22;11262;50.308;9.270;2022-07-29T14:58:00;30.90;62.80
22194;DHT22;11262;50.308;9.270;2022-07-29T15:00:26;30.70;64.00
22194;DHT22;11262;50.308;9.270;2022-07-29T15:02:52;30.60;64.70
22194;DHT22;11262;50.308;9.270;2022-07-29T15:05:17;30.60;65.30
22194;DHT22;11262;50.308;9.270;2022-07-29T15:07:43;30.40;64.60
22194;DHT22;11262;50.308;9.270;2022-07-29T15:10:09;30.10;66.00
22194;DHT22;11262;50.308;9.270;2022-07-29T15:12:34;30.00;65.20
22194;DHT22;11262;50.308;9.270;2022-07-29T15:15:00;29.80;65.10
22194;DHT22;11262;50.308;9.270;2022-07-29T15:17:25;29.70;68.80
22194;DHT22;11262;50.308;9.270;2022-07-29T15:19:51;29.60;67.00
22194;DHT22;11262;50.308;9.270;2022-07-29T15:22:18;29.50;67.30
22194;DHT22;11262;50.308;9.270;2022-07-29T15:24:44;29.40;67.80
22194;DHT22;11262;50.308;9.270;2022-07-29T15:27:10;29.20;67.10
22194;DHT22;11262;50.308;9.270;2022-07-29T15:29:40;29.10;67.20
22194;DHT22;11262;50.308;9.270;2022-07-29T15:32:06;29.00;68.40
22194;DHT22;11262;50.308;9.270;2022-07-29T15:34:32;28.90;81.50
22194;DHT22;11262;50.308;9.270;2022-07-29T15:36:58;28.40;93.40
22194;DHT22;11262;50.308;9.270;2022-07-29T15:39:23;27.50;92.80
22194;DHT22;11262;50.308;9.270;2022-07-29T15:41:49;27.00;92.10
22194;DHT22;11262;50.308;9.270;2022-07-29T15:44:15;26.30;94.10
22194;DHT22;11262;50.308;9.270;2022-07-29T15:46:41;25.70;99.90
22194;DHT22;11262;50.308;9.270;2022-07-29T15:49:24;24.40;99.90
22194;DHT22;11262;50.308;9.270;2022-07-29T15:51:59;23.30;99.90
22194;DHT22;11262;50.308;9.270;2022-07-29T15:54:26;22.50;99.90
22194;DHT22;11262;50.308;9.270;2022-07-29T15:56:52;22.00;99.90
22194;DHT22;11262;50.308;9.270;2022-07-29T15:59:18;21.50;99.90
22194;DHT22;11262;50.308;9.270;2022-07-29T16:01:43;21.10;99.90
22194;DHT22;11262;50.308;9.270;2022-07-29T16:04:09;20.50;99.90
22194;DHT22;11262;50.308;9.270;2022-07-29T16:06:34;20.10;99.90
22194;DHT22;11262;50.308;9.270;2022-07-29T16:09:00;19.80;99.90
22194;DHT22;11262;50.308;9.270;2022-07-29T16:11:25;19.60;99.90
22194;DHT22;11262;50.308;9.270;2022-07-29T16:13:51;19.40;99.90
22194;DHT22;11262;50.308;9.270;2022-07-29T16:16:17;19.50;99.90
22194;DHT22;11262;50.308;9.270;2022-07-29T16:18:44;19.50;99.90
22194;DHT22;11262;50.308;9.270;2022-07-29T16:21:10;19.50;99.90
22194;DHT22;11262;50.308;9.270;2022-07-29T16:23:37;19.50;99.90
22194;DHT22;11262;50.308;9.270;2022-07-29T16:26:03;19.50;99.90
22194;DHT22;11262;50.308;9.270;2022-07-29T16:28:28;19.50;99.90
22194;DHT22;11262;50.308;9.270;2022-07-29T16:30:55;19.70;99.90
22194;DHT22;11262;50.308;9.270;2022-07-29T16:33:21;19.80;99.90
22194;DHT22;11262;50.308;9.270;2022-07-29T16:35:48;20.00;99.90
22194;DHT22;11262;50.308;9.270;2022-07-29T16:38:13;20.00;99.90
22194;DHT22;11262;50.308;9.270;2022-07-29T16:40:39;20.20;99.90
22194;DHT22;11262;50.308;9.270;2022-07-29T16:43:05;20.50;99.90
22194;DHT22;11262;50.308;9.270;2022-07-29T16:45:30;20.60;99.90